Time;durP1;ratioP1;P1;durP2;ratioP2;P2;SDS_P1;SDS_P2;PMS_P1;PMS_P2;Temp;Humidity;BMP_temperature;BMP_pressure;BME280_temperature;BME280_humidity;BME280_pressure;Samples;Min_cycle;Max_cycle;Signal;HPM_P1;HPM_P2
2023/10/12 00:01:58;;;;;;;9.10;0.40;;;;;;;9.88;65.46;98623.50;5030319;28;20053;-74
2023/10/12 00:04:28;;;;;;;8.85;0.98;;;;;;;9.89;65.44;98619.97;5026073;28;20041;-71
2023/10/12 00:06:55;;;;;;;11.82;0.80;;;;;;;9.89;65.63;98622.56;5027592;28;20081;-72
2023/10/12 00:09:27;;;;;;;6.05;0.82;;;;;;;9.89;65.59;98620.78;5027793;28;20458;-72
2023/10/12 00:11:58;;;;;;;12.20;0.77;;;;;;;9.89;65.60;98622.56;5028369;28;20313;-73
2023/10/12 00:14:29;;;;;;;3.55;0.57;;;;;;;9.89;65.57;98612.97;5032091;28;20541;-72
2023/10/12 00:16:56;;;;;;;11.15;1.92;;;;;;;9.90;65.78;98616.41;5028214;28;20049;-73
2023/10/12 00:19:24;;;;;;;5.80;0.63;;;;;;;9.90;66.10;98603.38;5026683;28;20408;-73
2023/10/12 00:21:59;;;;;;;10.75;0.60;;;;;;;9.88;66.08;98600.88;5028368;28;20038;-72
2023/10/12 00:24:26;;;;;;;10.38;0.57;;;;;;;9.90;66.24;98606.84;5029218;28;20064;-73
2023/10/12 00:26:54;;;;;;;12.35;0.40;;;;;;;9.90;65.94;98609.47;5027346;28;20049;-72
2023/10/12 00:29:22;;;;;;;11.45;1.02;;;;;;;9.90;66.07;98605.97;5028776;28;20037;-76
2023/10/12 00:31:50;;;;;;;8.60;0.40;;;;;;;9.90;66.07;98599.03;5028628;28;20464;-72
2023/10/12 00:34:23;;;;;;;10.55;0.35;;;;;;;9.91;66.09;98600.72;5030221;28;20143;-74
2023/10/12 00:36:53;;;;;;;10.10;1.02;;;;;;;9.91;66.14;98605.09;5029442;28;20053;-76
2023/10/12 00:39:27;;;;;;;12.25;0.63;;;;;;;9.90;65.87;98604.25;5032683;28;20454;-75
2023/10/12 00:41:55;;;;;;;10.50;0.55;;;;;;;9.89;66.26;98605.16;5027369;28;20046;-75
2023/10/12 00:44:26;;;;;;;8.98;0.60;;;;;;;9.90;66.03;98599.03;5032446;28;20052;-74
2023/10/12 00:47:07;;;;;;;11.07;1.10;;;;;;;9.91;66.00;98594.66;5030294;28;20077;-75
2023/10/12 00:49:39;;;;;;;8.85;0.85;;;;;;;9.92;66.13;98578.06;5031373;28;20126;-75
2023/10/12 00:52:11;;;;;;;7.05;0.40;;;;;;;9.91;66.25;98576.41;5033354;28;20049;-75
2023/10/12 00:54:48;;;;;;;8.95;1.00;;;;;;;9.91;66.13;98574.63;5032848;28;20466;-76
2023/10/12 00:57:16;;;;;;;10.60;0.50;;;;;;;9.91;66.15;98574.63;5035081;28;20056;-75
2023/10/12 00:59:46;;;;;;;14.40;0.68;;;;;;;9.93;66.20;98584.97;5034430;28;20053;-76
2023/10/12 01:02:16;;;;;;;6.72;0.60;;;;;;;9.93;66.30;98586.72;5032604;28;20120;-75
2023/10/12 01:04:43;;;;;;;13.63;2.17;;;;;;;9.93;66.54;98581.53;5034995;28;20143;-76
2023/10/12 01:07:19;;;;;;;7.22;1.23;;;;;;;9.92;66.09;98585.91;5032879;28;20057;-75
2023/10/12 01:09:47;;;;;;;14.52;0.95;;;;;;;9.92;66.34;98585.91;5032445;28;20045;-77
2023/10/12 01:12:14;;;;;;;7.05;1.17;;;;;;;9.94;66.28;98594.50;5037066;28;20049;-76
2023/10/12 01:14:44;;;;;;;10.45;0.73;;;;;;;9.95;66.77;98585.75;5031096;28;20045;-77
2023/10/12 01:17:17;;;;;;;10.95;0.60;;;;;;;9.95;66.37;98580.53;5029395;28;20418;-77
2023/10/12 01:19:47;;;;;;;6.93;0.50;;;;;;;9.96;66.74;98578.75;5032701;28;20128;-76
2023/10/12 01:22:16;;;;;;;4.22;0.40;;;;;;;9.96;66.50;98577.00;5035796;28;20065;-77
2023/10/12 01:24:57;;;;;;;9.80;0.90;;;;;;;9.95;66.45;98575.31;5035744;28;20045;-77
2023/10/12 01:27:25;;;;;;;12.02;1.10;;;;;;;9.96;66.56;98571.78;5033276;28;20075;-77
2023/10/12 01:29:53;;;;;;;8.05;0.52;;;;;;;9.97;66.76;98583.91;5037382;28;20037;-78
2023/10/12 01:32:27;;;;;;;7.97;0.35;;;;;;;9.97;66.74;98590.88;5033637;28;20045;-77
2023/10/12 01:34:55;;;;;;;10.13;0.40;;;;;;;9.96;66.73;98582.22;5034700;28;21259;-77
2023/10/12 01:37:25;;;;;;;13.80;0.77;;;;;;;9.96;66.37;98592.66;5032226;28;20057;-77
2023/10/12 01:40:10;;;;;;;14.10;0.82;;;;;;;9.97;66.69;98590.88;5037570;28;20045;-78
2023/10/12 01:42:43;;;;;;;8.07;0.50;;;;;;;9.96;66.75;98590.06;5036645;28;20054;-78
2023/10/12 01:45:18;;;;;;;6.72;0.70;;;;;;;10.00;66.50;98585.50;5034188;28;20041;-78
2023/10/12 01:47:45;;;;;;;9.15;1.08;;;;;;;10.00;66.64;98583.75;5041095;28;20412;-78
2023/10/12 01:50:14;;;;;;;6.18;0.65;;;;;;;9.99;66.33;98589.91;5033898;28;20049;-79
2023/10/12 01:52:46;;;;;;;5.93;0.40;;;;;;;10.00;66.40;98588.97;5037648;28;20055;-78
2023/10/12 01:55:21;;;;;;;10.73;1.15;;;;;;;9.99;66.70;98591.63;5033809;28;20724;-78
2023/10/12 01:57:53;;;;;;;5.95;0.35;;;;;;;10.00;66.39;98580.31;5037357;28;20040;-78
2023/10/12 02:00:25;;;;;;;9.50;1.80;;;;;;;10.01;66.49;98595.84;5036886;28;20142;-80
2023/10/12 02:03:02;;;;;;;11.32;0.70;;;;;;;10.01;66.67;98590.63;5037887;28;20052;-78
2023/10/12 02:05:34;;;;;;;8.55;0.40;;;;;;;10.01;66.75;98590.63;5032318;28;20041;-78
2023/10/12 02:08:05;;;;;;;5.53;0.43;;;;;;;10.02;66.35;98594.94;5040771;28;20438;-78
2023/10/12 02:10:41;;;;;;;12.38;0.85;;;;;;;10.01;66.35;98601.06;5037616;28;20552;-77
2023/10/12 02:13:10;;;;;;;8.80;0.45;;;;;;;10.01;66.24;98593.25;5038571;28;20557;-79
2023/10/12 02:15:38;;;;;;;5.20;0.30;;;;;;;10.01;66.49;98590.63;5039335;28;20564;-78
2023/10/12 02:18:15;;;;;;;14.50;0.60;;;;;;;9.99;66.41;98589.91;5036927;28;20406;-75
2023/10/12 02:20:59;;;;;;;6.47;0.60;;;;;;;10.04;66.55;98602.69;5026152;28;20057;-75
2023/10/12 02:23:36;;;;;;;10.45;1.65;;;;;;;10.03;66.56;98609.66;5024230;28;20049;-76
2023/10/12 02:26:07;;;;;;;5.88;0.40;;;;;;;10.05;66.59;98601.78;5029737;28;20051;-75
2023/10/12 02:28:37;;;;;;;4.57;0.93;;;;;;;10.05;66.61;98613.06;5029801;28;20060;-75
2023/10/12 02:31:05;;;;;;;11.48;0.65;;;;;;;10.05;66.81;98591.34;5027855;28;20072;-75
2023/10/12 02:33:36;;;;;;;11.68;1.27;;;;;;;10.05;66.57;98605.22;5031167;28;20507;-75
2023/10/12 02:36:06;;;;;;;6.45;0.50;;;;;;;10.06;66.83;98593.03;5031436;28;20609;-75
2023/10/12 02:38:35;;;;;;;4.20;0.30;;;;;;;10.07;66.77;98599.91;5031370;28;20056;-75
2023/10/12 02:41:03;;;;;;;7.38;0.70;;;;;;;10.07;66.92;98607.75;5032669;28;20649;-75
2023/10/12 02:43:32;;;;;;;14.43;1.35;;;;;;;10.08;66.90;98607.69;5032184;28;20144;-74
2023/10/12 02:46:06;;;;;;;9.02;0.85;;;;;;;10.09;66.73;98619.78;5030695;28;20041;-73
2023/10/12 02:48:36;;;;;;;8.50;0.65;;;;;;;10.08;66.54;98602.47;5032113;28;20103;-75
2023/10/12 02:51:06;;;;;;;5.88;1.08;;;;;;;10.09;66.32;98619.78;5029641;28;21526;-75
2023/10/12 02:53:36;;;;;;;9.27;0.80;;;;;;;10.10;66.79;98603.22;5031461;28;20052;-75
2023/10/12 02:56:05;;;;;;;7.40;0.52;;;;;;;10.11;66.56;98611.91;5028251;28;20127;-75
2023/10/12 02:58:32;;;;;;;14.23;0.50;;;;;;;10.12;66.81;98624.84;5028922;28;20045;-74
2023/10/12 03:01:12;;;;;;;8.05;1.15;;;;;;;10.12;66.36;98624.84;5024996;28;20080;-75
2023/10/12 03:03:47;;;;;;;11.57;0.60;;;;;;;10.13;66.73;98631.78;5030230;28;20123;-75
2023/10/12 03:06:15;;;;;;;7.13;1.08;;;;;;;10.13;66.87;98636.13;5029022;28;20057;-75
2023/10/12 03:09:03;;;;;;;5.95;0.32;;;;;;;10.13;66.71;98652.63;5033811;28;20459;-75
2023/10/12 03:11:31;;;;;;;8.63;0.40;;;;;;;10.14;66.70;98645.66;5032673;28;20053;-75
2023/10/12 03:14:01;;;;;;;11.00;0.40;;;;;;;10.14;66.62;98648.25;5033006;28;20400;-75
2023/10/12 03:16:33;;;;;;;6.15;0.32;;;;;;;10.09;66.73;98645.88;5028698;28;20049;-75
2023/10/12 03:19:17;;;;;;;9.32;0.70;;;;;;;10.14;66.49;98649.09;5028575;28;20103;-75
2023/10/12 03:21:46;;;;;;;7.55;0.88;;;;;;;10.14;66.69;98641.28;5031550;28;20527;-75
2023/10/12 03:24:15;;;;;;;5.78;0.70;;;;;;;10.14;66.61;98654.31;5028027;28;20678;-75
2023/10/12 03:26:48;;;;;;;8.88;0.43;;;;;;;10.16;66.77;98671.66;5030329;28;20427;-76
2023/10/12 03:29:19;;;;;;;6.78;0.43;;;;;;;10.16;66.52;98676.88;5030098;28;20048;-69
2023/10/12 03:31:55;;;;;;;7.07;0.45;;;;;;;10.16;66.94;98675.13;5030579;28;20041;-68
2023/10/12 03:34:35;;;;;;;6.85;0.30;;;;;;;10.16;66.61;98671.66;5030226;28;20055;-70
2023/10/12 03:37:04;;;;;;;5.70;0.20;;;;;;;10.16;66.79;98676.88;5029948;28;20046;-69
2023/10/12 03:39:42;;;;;;;5.28;0.40;;;;;;;10.17;66.54;98670.75;5024308;28;20037;-69
2023/10/12 03:42:12;;;;;;;10.10;1.10;;;;;;;10.18;66.64;98669.81;5026084;28;20553;-69
2023/10/12 03:44:51;;;;;;;4.93;0.30;;;;;;;10.17;66.68;98675.97;5025179;28;20046;-70
2023/10/12 03:47:24;;;;;;;8.80;0.28;;;;;;;10.13;66.75;98676.13;5027488;28;20048;-69
2023/10/12 03:50:00;;;;;;;11.30;0.60;;;;;;;10.18;66.71;98681.09;5023347;28;20072;-69
2023/10/12 03:52:31;;;;;;;7.03;0.40;;;;;;;10.19;66.30;98692.38;5024450;28;20057;-69
2023/10/12 03:55:18;;;;;;;4.28;0.45;;;;;;;10.17;66.42;98687.25;5026161;28;20045;-69
2023/10/12 03:57:51;;;;;;;11.50;0.50;;;;;;;10.18;66.42;98690.69;5026989;28;20108;-68
2023/10/12 04:00:25;;;;;;;3.15;0.40;;;;;;;10.18;66.51;98690.69;5024040;28;20059;-69
2023/10/12 04:02:58;;;;;;;9.10;0.52;;;;;;;10.19;66.62;98700.19;5031110;28;20046;-69
2023/10/12 04:05:46;;;;;;;4.95;0.32;;;;;;;10.19;66.50;98708.00;5027953;28;20058;-69
2023/10/12 04:14:10;;;;;;;8.55;0.40;;;;;;;10.18;66.61;98706.34;5028623;28;20056;-69
2023/10/12 04:16:45;;;;;;;3.63;0.28;;;;;;;10.17;66.10;98717.72;5030247;28;20055;-69
2023/10/12 04:19:14;;;;;;;;;;;;;;;10.17;66.61;98715.09;5033562;28;20049;-69
2023/10/12 04:21:57;;;;;;;7.00;0.15;;;;;;;10.16;66.56;98716.88;5030360;28;19936;-68
2023/10/12 04:27:12;;;;;;;5.57;0.20;;;;;;;10.14;66.52;98732.59;5035016;28;20054;-70
2023/10/12 04:29:39;;;;;;;4.05;0.25;;;;;;;10.14;66.51;98744.78;5028720;28;20048;-69
2023/10/12 04:32:15;;;;;;;7.03;0.65;;;;;;;10.09;66.16;98734.56;5033563;28;20488;-69
2023/10/12 04:34:48;;;;;;;3.08;0.20;;;;;;;10.13;66.24;98738.72;5029246;28;20052;-68
2023/10/12 04:37:22;;;;;;;2.67;0.63;;;;;;;10.13;66.50;98745.69;5034275;28;20069;-69
2023/10/12 04:39:56;;;;;;;3.65;0.30;;;;;;;10.12;66.29;98744.84;5034567;28;20059;-76
2023/10/12 04:42:33;;;;;;;6.57;0.52;;;;;;;10.12;66.24;98760.50;5035344;28;20128;-76
2023/10/12 04:45:23;;;;;;;3.03;0.20;;;;;;;10.11;66.38;98761.44;5034037;28;20088;-77
2023/10/12 04:47:55;;;;;;;3.55;0.20;;;;;;;10.12;66.60;98776.16;5029216;28;20049;-76
2023/10/12 04:50:43;;;;;;;10.40;0.52;;;;;;;10.11;66.51;98764.03;5035883;28;20745;-76
2023/10/12 04:53:11;;;;;;;4.72;0.20;;;;;;;10.11;66.33;98769.25;5037962;28;20041;-75
2023/10/12 04:55:41;;;;;;;2.33;0.20;;;;;;;10.11;66.20;98776.25;5035419;28;20166;-78
2023/10/12 04:58:16;;;;;;;4.43;0.40;;;;;;;10.10;66.40;98787.59;5039529;28;20064;-76
2023/10/12 05:00:55;;;;;;;4.80;0.50;;;;;;;10.10;66.54;98805.84;5036287;28;20053;-75
2023/10/12 05:03:33;;;;;;;6.22;0.40;;;;;;;10.09;66.32;98806.78;5033056;28;20102;-76
2023/10/12 05:06:04;;;;;;;7.18;0.50;;;;;;;10.08;66.70;98811.16;5033620;28;20049;-77
2023/10/12 05:08:33;;;;;;;5.88;0.40;;;;;;;10.07;66.63;98814.66;5035814;28;20484;-73
2023/10/12 05:11:00;;;;;;;6.82;0.28;;;;;;;10.06;66.49;98815.59;5027081;28;20049;-73
2023/10/12 05:13:28;;;;;;;6.45;0.20;;;;;;;10.06;66.35;98818.19;5029576;28;20055;-73
2023/10/12 05:16:05;;;;;;;4.07;0.20;;;;;;;9.91;66.32;98798.91;5031793;28;20048;-73
2023/10/12 05:18:38;;;;;;;2.90;0.30;;;;;;;10.04;66.62;98830.47;5012064;28;20050;-73
2023/10/12 05:21:10;;;;;;;4.47;0.28;;;;;;;10.04;66.85;98835.66;5033134;28;20227;-74
2023/10/12 05:23:37;;;;;;;4.22;0.20;;;;;;;10.02;66.68;98839.31;5031971;28;20053;-74
2023/10/12 05:26:09;;;;;;;2.53;0.45;;;;;;;10.03;66.67;98852.25;5029282;28;20091;-74
2023/10/12 05:28:47;;;;;;;3.28;0.13;;;;;;;10.00;66.88;98841.13;5033914;28;20415;-74
2023/10/12 05:31:14;;;;;;;7.90;0.40;;;;;;;10.02;66.84;98840.13;5029709;28;20049;-74
2023/10/12 05:34:00;;;;;;;6.25;1.05;;;;;;;10.01;66.96;98846.25;5033326;28;20071;-74
2023/10/12 05:36:31;;;;;;;3.70;0.20;;;;;;;9.96;67.12;98842.16;5032775;28;20046;-74
2023/10/12 05:39:12;;;;;;;4.72;0.38;;;;;;;9.99;66.87;98842.91;5028208;28;20044;-72
2023/10/12 05:41:40;;;;;;;8.27;0.25;;;;;;;9.96;67.01;98842.16;5032541;28;20475;-73
2023/10/12 05:44:14;;;;;;;6.50;0.40;;;;;;;9.98;66.81;98864.66;5031513;28;20384;-73
2023/10/12 05:46:51;;;;;;;9.05;0.30;;;;;;;9.98;66.96;98864.66;5035963;28;20122;-74
2023/10/12 05:49:23;;;;;;;9.43;0.30;;;;;;;9.99;67.24;98879.41;5031134;28;20048;-73
2023/10/12 05:51:53;;;;;;;5.05;0.88;;;;;;;9.99;67.05;98878.53;5031013;28;20140;-74
2023/10/12 05:54:23;;;;;;;6.38;0.40;;;;;;;9.97;67.07;98881.25;5030039;28;20045;-72
2023/10/12 05:56:51;;;;;;;6.00;0.25;;;;;;;9.96;67.34;98884.78;5033840;28;20045;-74
2023/10/12 05:59:20;;;;;;;5.75;0.20;;;;;;;9.97;67.34;98889.06;5030226;28;20061;-74
2023/10/12 06:01:48;;;;;;;4.50;0.30;;;;;;;9.94;67.06;98878.78;5024735;28;20049;-73
2023/10/12 06:04:16;;;;;;;3.90;0.30;;;;;;;9.96;67.46;98890.00;5029619;28;20419;-73
2023/10/12 06:06:43;;;;;;;6.60;0.30;;;;;;;9.98;67.36;98895.97;5028941;28;20049;-73
2023/10/12 06:09:13;;;;;;;3.72;0.60;;;;;;;9.95;67.43;98898.72;5030955;28;20480;-73
2023/10/12 06:11:43;;;;;;;7.43;0.35;;;;;;;9.94;67.50;98910.06;5026806;28;20045;-73
2023/10/12 06:14:14;;;;;;;7.95;0.50;;;;;;;9.96;67.85;98908.25;5026275;28;20053;-72
2023/10/12 06:16:42;;;;;;;11.65;0.65;;;;;;;9.91;67.73;98911.06;5029398;28;20053;-73
2023/10/12 06:19:21;;;;;;;4.60;0.30;;;;;;;9.96;67.99;98918.69;5027393;28;20053;-74
2023/10/12 06:21:51;;;;;;;5.80;0.65;;;;;;;9.97;67.64;98928.19;5029137;28;20084;-74
2023/10/12 06:24:21;;;;;;;3.90;0.20;;;;;;;9.96;68.06;98925.63;5025018;28;20044;-75
2023/10/12 06:26:49;;;;;;;6.63;1.02;;;;;;;9.97;67.92;98946.44;5023318;28;20133;-73
2023/10/12 06:29:25;;;;;;;10.48;0.55;;;;;;;9.95;67.68;98932.63;5030682;28;20074;-73
2023/10/12 06:31:54;;;;;;;8.48;0.43;;;;;;;9.98;68.15;98932.47;5016050;28;20534;-74
2023/10/12 06:34:23;;;;;;;4.28;0.20;;;;;;;10.00;68.02;98946.31;5018914;28;20607;-74
2023/10/12 06:36:57;;;;;;;9.50;1.65;;;;;;;9.96;67.82;98947.38;5024407;28;20060;-75
2023/10/12 06:42:13;;;;;;;5.22;0.30;;;;;;;10.01;67.73;98944.53;5028443;28;20180;-75
2023/10/12 06:44:40;;;;;;;2.72;0.47;;;;;;;10.03;67.83;98954.00;5023062;28;20127;-77
2023/10/12 06:49:51;;;;;;;4.88;0.63;;;;;;;10.07;67.87;98965.13;5033367;28;20568;-77
2023/10/12 06:52:19;;;;;;;2.25;0.30;;;;;;;10.08;68.07;98967.69;5028892;28;20513;-77
2023/10/12 06:54:54;;;;;;;8.00;0.40;;;;;;;10.09;68.27;98973.72;5030554;28;20046;-76
2023/10/12 06:57:42;;;;;;;;;;;;;;;10.11;67.94;98974.53;5030247;28;20042;-73
2023/10/12 07:00:33;;;;;;;5.22;0.30;;;;;;;10.10;67.93;98971.06;5027812;28;19928;-72
2023/10/12 07:03:08;;;;;;;7.15;0.93;;;;;;;10.12;68.14;98990.09;5027315;28;20048;-73
2023/10/12 07:05:38;;;;;;;10.02;0.40;;;;;;;10.14;68.31;98998.69;5028444;28;20060;-74
2023/10/12 07:08:08;;;;;;;1.98;0.30;;;;;;;10.18;67.98;99001.16;5022038;28;20522;-75
2023/10/12 07:10:35;;;;;;;6.15;0.20;;;;;;;10.12;67.94;98987.47;5026860;28;20045;-75
2023/10/12 07:13:03;;;;;;;4.60;0.30;;;;;;;10.22;68.06;98992.31;5029889;28;20057;-79
2023/10/12 07:15:40;;;;;;;7.30;0.22;;;;;;;10.28;67.94;99007.72;5029599;28;20107;-75
2023/10/12 07:18:14;;;;;;;3.40;0.40;;;;;;;10.18;68.01;98982.91;5026457;28;20044;-74
2023/10/12 07:20:46;;;;;;;4.93;1.05;;;;;;;10.34;68.02;99004.81;5027368;28;20060;-75
2023/10/12 07:23:17;;;;;;;8.75;0.40;;;;;;;10.41;67.89;99003.59;5022905;28;20456;-75
2023/10/12 07:25:48;;;;;;;7.05;0.20;;;;;;;10.45;67.53;99009.56;5027868;28;20057;-74
2023/10/12 07:28:25;;;;;;;4.68;0.30;;;;;;;10.51;67.71;99023.16;5024346;28;20064;-75
2023/10/12 07:31:23;;;;;;;13.82;0.40;;;;;;;10.58;67.92;99023.72;5025474;28;20099;-73
2023/10/12 07:33:59;;;;;;;2.75;0.20;;;;;;;10.62;67.87;99024.44;5028864;28;20056;-74
2023/10/12 07:36:44;;;;;;;3.08;0.20;;;;;;;10.71;67.84;99029.22;5029512;28;20053;-73
2023/10/12 07:39:17;;;;;;;5.05;0.75;;;;;;;10.77;67.70;99037.59;5012088;28;20065;-76
2023/10/12 07:41:53;;;;;;;13.93;1.92;;;;;;;10.87;67.52;99043.25;5026481;28;20071;-79
2023/10/12 07:44:22;;;;;;;5.53;0.20;;;;;;;10.93;67.14;99055.16;5035088;28;20059;-79
2023/10/12 07:46:49;;;;;;;6.45;0.28;;;;;;;10.99;66.96;99045.28;5036827;28;20041;-81
2023/10/12 07:49:36;;;;;;;4.43;0.10;;;;;;;11.08;66.88;99058.81;5029705;28;20053;-79
2023/10/12 07:52:09;;;;;;;4.70;0.20;;;;;;;11.16;66.79;99054.09;5037050;28;20045;-79
2023/10/12 07:54:57;;;;;;;3.08;0.30;;;;;;;11.20;66.80;99053.00;5028680;28;20062;-78
2023/10/12 07:57:29;;;;;;;6.85;0.50;;;;;;;11.30;66.58;99059.47;5038061;28;20045;-79
2023/10/12 08:00:18;;;;;;;4.68;0.20;;;;;;;11.38;66.67;99059.09;5039181;28;20041;-79
2023/10/12 08:05:50;;;;;;;1.67;0.20;;;;;;;11.49;66.02;99060.25;5027959;28;20628;-76
2023/10/12 08:08:33;;;;;;;;;;;;;;;11.56;66.54;99060.81;5032903;28;20049;-80
2023/10/12 08:11:08;;;;;;;4.25;0.10;;;;;;;11.58;65.91;99061.56;5037174;28;19993;-83
2023/10/12 08:13:39;;;;;;;4.22;0.10;;;;;;;11.65;65.50;99076.03;5034664;28;20080;-82
2023/10/12 08:16:13;;;;;;;6.43;0.30;;;;;;;11.72;65.20;99081.78;5035779;28;20045;-78
2023/10/12 08:21:38;;;;;;;1.60;0.10;;;;;;;11.79;64.21;99091.03;5027717;28;21083;-75
2023/10/12 08:24:09;;;;;;;4.65;0.10;;;;;;;11.82;63.89;99093.50;5032221;28;20068;-75
2023/10/12 08:26:47;;;;;;;0.63;0.10;;;;;;;11.84;63.73;99099.50;5028884;28;20393;-76
2023/10/12 08:30:12;;;;;;;2.08;0.10;;;;;;;11.86;63.60;99108.13;5034938;28;20045;-80
2023/10/12 08:32:12;;;;;;;2.35;0.45;;;;;;;11.87;63.21;99095.94;5034020;28;20046;-76
2023/10/12 08:35:10;;;;;;;5.38;0.10;;;;;;;11.89;63.02;99100.13;5026289;28;21204;-76
2023/10/12 08:37:36;;;;;;;1.98;0.08;;;;;;;11.90;62.09;99112.31;5030376;28;20057;-80
2023/10/12 08:40:18;;;;;;;4.47;0.08;;;;;;;11.90;61.98;99104.47;5035635;28;20087;-77
2023/10/12 08:42:55;;;;;;;5.05;0.20;;;;;;;11.90;61.71;99111.47;5030607;28;20076;-77
2023/10/12 08:45:26;;;;;;;2.28;0.55;;;;;;;11.89;61.34;99115.81;5035617;28;20045;-78
2023/10/12 08:47:54;;;;;;;1.83;0.10;;;;;;;11.91;61.70;99132.31;5029321;28;20049;-75
2023/10/12 08:50:58;;;;;;;0.32;0.13;;;;;;;11.92;61.33;99126.16;5034277;28;20048;-76
2023/10/12 08:53:27;;;;;;;0.43;0.10;;;;;;;11.95;61.00;99129.53;5033807;28;20140;-77
2023/10/12 08:55:54;;;;;;;1.38;0.00;;;;;;;11.89;61.07;99123.69;5034775;28;20045;-77
2023/10/12 08:58:42;;;;;;;2.40;0.10;;;;;;;11.97;61.06;99127.69;5031602;28;20412;-78
2023/10/12 09:01:10;;;;;;;1.67;0.30;;;;;;;11.99;60.41;99136.31;5030158;28;21369;-77
2023/10/12 09:03:44;;;;;;;3.85;0.65;;;;;;;11.96;60.50;99120.78;5033507;28;20096;-76
2023/10/12 09:08:57;;;;;;;2.42;0.75;;;;;;;11.99;59.88;99133.69;5032698;28;20111;-77
2023/10/12 09:11:29;;;;;;;6.25;0.10;;;;;;;12.00;59.89;99148.47;5034708;28;20041;-77
2023/10/12 09:13:58;;;;;;;2.70;0.10;;;;;;;11.96;59.36;99150.41;5031469;28;20865;-76
2023/10/12 09:16:26;;;;;;;1.75;0.10;;;;;;;11.97;59.66;99159.09;5033092;28;20045;-79
2023/10/12 09:18:57;;;;;;;5.53;0.30;;;;;;;12.00;59.72;99161.56;5019007;28;20045;-74
2023/10/12 09:21:38;;;;;;;3.08;0.10;;;;;;;11.99;58.97;99163.34;5033268;28;20103;-74
2023/10/12 09:24:14;;;;;;;2.58;0.10;;;;;;;12.02;59.12;99171.03;5031057;28;20053;-74
2023/10/12 09:26:49;;;;;;;0.03;0.00;;;;;;;12.08;58.72;99178.56;5032882;28;20052;-73
2023/10/12 09:29:27;;;;;;;1.60;0.00;;;;;;;12.18;58.80;99175.47;5026501;28;20057;-73
2023/10/12 09:32:15;;;;;;;0.85;0.10;;;;;;;12.30;58.53;99175.72;5027411;28;20053;-74
2023/10/12 09:34:44;;;;;;;2.28;0.00;;;;;;;12.32;58.21;99176.50;5029187;28;20096;-73
2023/10/12 09:37:17;;;;;;;1.13;0.00;;;;;;;12.43;58.07;99182.94;5015885;28;20045;-75
2023/10/12 09:39:47;;;;;;;2.33;0.08;;;;;;;12.52;57.38;99185.06;5028887;28;20042;-74
2023/10/12 09:42:27;;;;;;;0.80;0.00;;;;;;;12.48;56.90;99168.69;5028505;28;20679;-75
2023/10/12 09:45:01;;;;;;;2.38;0.08;;;;;;;12.57;56.80;99185.69;5028796;28;20609;-74
2023/10/12 09:47:43;;;;;;;0.30;0.00;;;;;;;12.55;56.30;99183.16;5011143;28;20049;-74
2023/10/12 09:50:14;;;;;;;3.05;0.03;;;;;;;12.50;56.17;99176.47;5032456;28;20134;-74
2023/10/12 09:52:47;;;;;;;1.38;0.10;;;;;;;12.50;56.03;99206.13;5028137;28;20492;-74
2023/10/12 09:55:24;;;;;;;21.90;0.47;;;;;;;12.49;55.93;99198.31;5028708;28;20057;-73
2023/10/12 09:57:53;;;;;;;0.75;0.00;;;;;;;12.44;55.60;99227.38;5029474;28;20479;-74
2023/10/12 10:00:28;;;;;;;1.75;0.10;;;;;;;12.44;55.62;99200.38;5027659;28;20049;-74
2023/10/12 10:02:59;;;;;;;0.30;0.00;;;;;;;12.43;55.41;99215.19;5033136;28;20053;-74
2023/10/12 10:05:51;;;;;;;5.30;0.10;;;;;;;12.42;55.61;99220.53;5026339;28;20063;-74
2023/10/12 10:08:19;;;;;;;0.68;0.10;;;;;;;12.38;55.83;99210.22;5027058;28;20053;-75
2023/10/12 10:10:57;;;;;;;1.35;0.20;;;;;;;12.38;55.62;99219.84;5024717;28;20042;-74
2023/10/12 10:13:46;;;;;;;1.38;0.10;;;;;;;12.38;56.07;99218.06;5021213;28;20045;-74
2023/10/12 10:16:15;;;;;;;0.15;0.00;;;;;;;12.36;55.90;99217.28;5030909;28;20045;-74
2023/10/12 10:18:47;;;;;;;1.63;0.00;;;;;;;12.37;55.46;99213.75;5024136;28;20060;-75
2023/10/12 10:21:19;;;;;;;0.98;0.10;;;;;;;12.36;55.75;99213.84;5026009;28;20153;-75
2023/10/12 10:23:54;;;;;;;1.75;0.05;;;;;;;12.36;55.67;99209.44;5027845;28;20096;-74
2023/10/12 10:26:23;;;;;;;0.00;0.00;;;;;;;12.38;55.67;99206.75;5028879;28;20050;-75
2023/10/12 10:29:04;;;;;;;2.13;0.10;;;;;;;12.36;55.04;99213.84;5028400;28;20164;-74
2023/10/12 10:31:34;;;;;;;0.47;0.00;;;;;;;12.36;55.43;99219.91;5030689;28;20136;-74
2023/10/12 10:34:04;;;;;;;2.20;0.00;;;;;;;12.38;55.34;99207.59;5025528;28;20895;-74
2023/10/12 10:36:34;;;;;;;1.15;0.00;;;;;;;12.37;55.19;99216.34;5028966;28;20143;-74
2023/10/12 10:39:08;;;;;;;0.95;0.08;;;;;;;12.34;55.00;99207.81;5027490;28;20057;-76
2023/10/12 10:41:46;;;;;;;0.43;0.00;;;;;;;12.35;54.52;99218.22;5032999;28;20804;-71
2023/10/12 10:44:16;;;;;;;2.53;0.00;;;;;;;12.33;54.33;99220.06;5033125;28;20044;-72
2023/10/12 10:46:45;;;;;;;0.40;0.05;;;;;;;12.33;54.53;99208.75;5018213;28;20053;-72
2023/10/12 10:49:15;;;;;;;1.45;0.00;;;;;;;12.33;54.48;99217.44;5031488;28;20046;-72
2023/10/12 10:51:47;;;;;;;1.95;0.03;;;;;;;12.28;54.07;99206.34;5029840;28;20388;-71
2023/10/12 10:54:19;;;;;;;0.20;0.10;;;;;;;12.33;54.15;99214.84;5027030;28;20044;-71
2023/10/12 10:56:49;;;;;;;1.80;0.03;;;;;;;12.31;53.90;99200.13;5026219;28;20056;-71
2023/10/12 10:59:18;;;;;;;0.10;0.00;;;;;;;12.32;53.56;99202.69;5030077;28;20547;-73
2023/10/12 11:01:49;;;;;;;0.40;0.10;;;;;;;12.33;53.28;99203.53;5030755;28;20053;-73
2023/10/12 11:04:41;;;;;;;3.70;0.30;;;;;;;12.33;52.78;99206.13;5026499;28;20049;-73
2023/10/12 11:07:12;;;;;;;0.32;0.00;;;;;;;12.32;52.72;99210.53;5029551;28;20519;-77
2023/10/12 11:10:05;;;;;;;3.05;0.08;;;;;;;12.31;52.44;99211.44;5030433;28;20103;-80
2023/10/12 11:12:36;;;;;;;0.25;0.00;;;;;;;12.20;52.61;99208.50;5034509;28;20502;-79
2023/10/12 11:15:07;;;;;;;1.08;0.00;;;;;;;12.30;52.81;99219.38;5036188;28;20079;-79
2023/10/12 11:17:40;;;;;;;0.32;0.00;;;;;;;12.30;52.02;99215.00;5032840;28;20071;-78
2023/10/12 11:20:18;;;;;;;1.65;0.08;;;;;;;12.30;52.13;99215.00;5029364;28;20562;-74
2023/10/12 11:22:45;;;;;;;1.45;0.00;;;;;;;12.30;51.91;99224.63;5034863;28;20132;-76
2023/10/12 11:25:12;;;;;;;1.55;0.00;;;;;;;12.28;51.69;99221.22;5029837;28;20423;-77
2023/10/12 11:27:41;;;;;;;0.35;0.00;;;;;;;12.30;51.63;99224.63;5029840;28;20059;-76
2023/10/12 11:30:12;;;;;;;1.40;0.08;;;;;;;12.28;51.48;99222.06;5032930;28;20104;-77
2023/10/12 11:32:53;;;;;;;1.48;0.10;;;;;;;12.28;51.90;99232.53;5032653;28;20137;-77
2023/10/12 11:35:33;;;;;;;3.10;0.10;;;;;;;12.28;51.86;99229.06;5031970;28;20423;-77
2023/10/12 11:38:04;;;;;;;0.20;0.00;;;;;;;12.28;51.69;99229.06;5032433;28;20459;-74
2023/10/12 11:40:31;;;;;;;2.10;0.10;;;;;;;12.27;51.33;99245.72;5025606;28;20985;-73
2023/10/12 11:42:59;;;;;;;1.73;0.08;;;;;;;12.24;51.28;99236.25;5030176;28;20071;-73
2023/10/12 11:45:33;;;;;;;1.85;0.10;;;;;;;12.26;50.62;99250.09;5027241;28;20037;-73
2023/10/12 11:48:15;;;;;;;0.20;0.00;;;;;;;12.26;50.80;99257.09;5033372;28;20048;-75
2023/10/12 11:50:45;;;;;;;2.58;0.10;;;;;;;12.24;51.21;99269.41;5034116;28;20115;-79
2023/10/12 11:53:14;;;;;;;0.85;0.30;;;;;;;12.26;50.60;99270.19;5038152;28;20498;-80
2023/10/12 11:55:42;;;;;;;0.82;0.00;;;;;;;12.26;50.76;99260.56;5039427;28;20407;-81
2023/10/12 11:58:16;;;;;;;0.28;0.00;;;;;;;12.14;50.59;99251.53;5038230;28;20069;-77
2023/10/12 12:00:56;;;;;;;0.88;0.10;;;;;;;12.21;50.98;99257.34;5030273;28;20834;-75
2023/10/12 12:03:26;;;;;;;2.08;0.00;;;;;;;12.20;50.46;99260.88;5031038;28;20061;-77
2023/10/12 12:05:53;;;;;;;0.38;0.00;;;;;;;12.27;50.32;99283.22;5038845;28;20190;-81
2023/10/12 12:08:24;;;;;;;0.20;0.00;;;;;;;12.28;50.84;99281.44;5040595;28;20053;-74
2023/10/12 12:10:55;;;;;;;1.20;0.00;;;;;;;12.26;50.39;99281.50;5028957;28;20389;-75
2023/10/12 12:13:24;;;;;;;0.32;0.00;;;;;;;12.20;50.69;99281.81;5028554;28;20044;-75
2023/10/12 12:15:55;;;;;;;0.05;0.00;;;;;;;12.28;50.60;99290.13;5028692;28;20053;-75
2023/10/12 12:18:22;;;;;;;0.77;0.00;;;;;;;12.25;50.69;99300.75;5028370;28;20049;-75
2023/10/12 12:20:52;;;;;;;0.75;0.00;;;;;;;12.27;50.70;99308.56;5030376;28;20052;-76
2023/10/12 12:23:19;;;;;;;1.48;0.00;;;;;;;12.28;50.84;99316.31;5027283;28;20045;-74
2023/10/12 12:25:47;;;;;;;0.70;0.05;;;;;;;12.22;50.79;99316.63;5027582;28;20053;-74